Time;durP1;ratioP1;P1;durP2;ratioP2;P2;SDS_P1;SDS_P2;PMS_P1;PMS_P2;Temp;Humidity;BMP_temperature;BMP_pressure;BME280_temperature;BME280_humidity;BME280_pressure;Samples;Min_cycle;Max_cycle;Signal;HPM_P1;HPM_P2
2023/08/23 00:06:23;;;;;;;7.37;2.80;;;;;;;20.43;67.69;100376.16;30608329;28;110227;-67
2023/08/23 00:21:23;;;;;;;5.70;3.00;;;;;;;20.21;67.24;100380.44;30606081;28;97430;-68
2023/08/23 00:36:25;;;;;;;9.53;3.37;;;;;;;20.06;67.10;100392.47;30605942;28;97258;-68
2023/08/23 00:51:25;;;;;;;13.67;5.13;;;;;;;20.03;66.59;100387.53;30604713;28;97539;-67
2023/08/23 01:06:42;;;;;;;10.37;2.87;;;;;;;19.88;66.74;100408.75;30603571;28;96748;-67
2023/08/23 01:21:46;;;;;;;6.07;3.13;;;;;;;19.69;67.21;100407.88;30600677;28;96796;-69
2023/08/23 01:36:47;;;;;;;6.00;3.67;;;;;;;19.44;67.39;100392.56;30599975;28;97228;-69
2023/08/23 01:51:47;;;;;;;5.77;3.40;;;;;;;19.35;68.09;100383.91;30598094;28;97071;-69
2023/08/23 02:06:48;;;;;;;7.53;3.90;;;;;;;19.37;68.17;100391.78;30597321;28;102943;-69
2023/08/23 02:21:48;;;;;;;7.87;4.00;;;;;;;19.30;68.42;100397.28;30596299;28;97441;-68
2023/08/23 02:36:48;;;;;;;15.05;4.93;;;;;;;19.18;68.49;100399.88;30595707;28;105021;-68
2023/08/23 02:51:49;;;;;;;10.27;4.80;;;;;;;19.09;68.67;100407.44;30593763;28;115870;-68
2023/08/23 03:06:49;;;;;;;8.52;4.80;;;;;;;18.84;69.09;100409.28;30597760;28;114044;-67
2023/08/23 03:21:49;;;;;;;9.73;4.18;;;;;;;18.66;70.03;100413.56;30609409;28;110060;-69
2023/08/23 03:36:50;;;;;;;9.52;4.68;;;;;;;18.49;70.38;100418.66;30609314;28;116668;-68
2023/08/23 03:51:50;;;;;;;11.60;4.90;;;;;;;18.34;70.84;100420.81;30608215;28;97527;-68
2023/08/23 04:06:50;;;;;;;6.85;4.40;;;;;;;18.25;71.01;100437.25;30605113;28;97457;-68
2023/08/23 04:21:51;;;;;;;8.77;4.40;;;;;;;18.54;71.18;100445.81;30598474;28;116729;-67
2023/08/23 04:36:51;;;;;;;7.68;3.88;;;;;;;19.02;70.78;100443.66;30598655;28;97299;-68
2023/08/23 04:51:51;;;;;;;11.05;4.60;;;;;;;19.26;69.82;100450.09;30597855;28;111177;-68
2023/08/23 05:06:51;;;;;;;10.95;4.10;;;;;;;19.59;69.49;100463.28;30598486;28;97268;-68
2023/08/23 05:21:52;;;;;;;10.60;4.73;;;;;;;19.96;68.88;100476.03;30596823;28;112612;-68
2023/08/23 05:36:52;;;;;;;10.70;4.47;;;;;;;20.46;67.59;100488.50;30595045;28;111522;-67
2023/08/23 05:51:53;;;;;;;10.73;4.17;;;;;;;21.05;66.03;100493.31;30594870;28;113169;-69
2023/08/23 06:06:54;;;;;;;6.40;3.47;;;;;;;22.16;63.83;100498.06;30593390;28;96747;-69
2023/08/23 06:21:54;;;;;;;;;;;;;;;22.75;61.50;100495.16;30591287;28;96808;-69
2023/08/23 06:36:54;;;;;;;4.70;2.80;;;;;;;23.12;59.88;100491.16;30591085;28;97303;-68
2023/08/23 06:51:55;;;;;;;4.57;2.60;;;;;;;23.80;56.99;100505.53;30610574;28;97247;-67
2023/08/23 07:06:55;;;;;;;5.70;2.22;;;;;;;24.55;54.66;100504.28;30610274;28;97401;-68
2023/08/23 07:21:57;;;;;;;5.28;1.90;;;;;;;25.19;51.06;100506.28;30606529;28;100311;-68
2023/08/23 07:36:57;;;;;;;4.20;1.67;;;;;;;26.23;48.05;100510.50;30605934;28;96849;-69
2023/08/23 07:51:57;;;;;;;4.38;1.38;;;;;;;27.02;45.01;100512.09;30602942;28;107220;-69
2023/08/23 08:06:58;;;;;;;4.90;1.80;;;;;;;27.42;43.77;100515.13;30605279;28;96838;-69
2023/08/23 08:21:58;;;;;;;5.78;1.50;;;;;;;28.37;41.84;100512.66;30603362;28;109312;-67
2023/08/23 08:36:58;;;;;;;6.13;1.65;;;;;;;29.64;38.74;100522.19;30601669;28;104006;-67
2023/08/23 08:52:03;;;;;;;2.45;1.20;;;;;;;30.68;34.66;100517.09;30602311;28;97160;-68
2023/08/23 09:07:04;;;;;;;5.50;1.20;;;;;;;34.00;29.11;100507.81;30599961;28;96882;-69
2023/08/23 09:22:05;;;;;;;3.53;1.40;;;;;;;43.37;19.40;100508.88;30597919;28;96840;-69
2023/08/23 09:37:06;;;;;;;3.50;1.30;;;;;;;47.84;16.57;100516.31;30597169;28;97310;-69
2023/08/23 09:52:09;;;;;;;2.93;1.30;;;;;;;49.38;14.47;100515.47;30595524;28;97590;-68
2023/08/23 10:07:11;;;;;;;6.10;1.10;;;;;;;49.35;13.51;100505.03;30592448;28;96781;-69
2023/08/23 10:22:12;;;;;;;4.73;1.20;;;;;;;45.20;15.39;100499.78;30590354;28;97285;-70
2023/08/23 10:37:19;;;;;;;5.50;1.20;;;;;;;42.23;16.71;100481.25;30589134;28;97464;-67
2023/08/23 10:52:22;;;;;;;2.50;1.20;;;;;;;40.28;17.93;100472.22;30589077;28;97078;-70
2023/08/23 11:07:25;;;;;;;2.83;1.10;;;;;;;38.69;18.99;100468.31;30589622;28;97482;-67
2023/08/23 11:22:25;;;;;;;2.27;1.17;;;;;;;37.56;20.09;100454.13;30586722;28;97541;-68
2023/08/23 11:37:28;;;;;;;2.85;1.20;;;;;;;36.99;19.70;100441.88;30605123;28;96826;-67
2023/08/23 11:52:31;;;;;;;4.50;1.30;;;;;;;36.35;19.15;100427.31;30606564;28;97505;-71
2023/08/23 12:07:31;;;;;;;4.93;1.27;;;;;;;35.92;19.75;100424.50;30606516;28;96818;-67
2023/08/23 12:22:32;;;;;;;3.67;1.33;;;;;;;35.59;20.53;100438.19;30601694;28;100195;-67
2023/08/23 12:37:32;;;;;;;2.90;1.00;;;;;;;35.08;21.37;100427.78;30600067;28;97456;-69
2023/08/23 12:52:33;;;;;;;3.33;1.10;;;;;;;34.82;21.96;100404.94;30600347;28;97286;-69
2023/08/23 13:07:33;;;;;;;4.05;1.63;;;;;;;34.90;21.60;100395.78;30597567;28;97558;-69
2023/08/23 13:22:33;;;;;;;5.38;1.05;;;;;;;34.90;21.38;100393.03;30597001;28;97505;-71
2023/08/23 13:37:37;;;;;;;3.33;1.30;;;;;;;34.18;21.68;100389.81;30594021;28;97611;-70
2023/08/23 13:52:37;;;;;;;3.33;1.30;;;;;;;33.41;22.55;100376.34;30592644;28;97448;-71
2023/08/23 14:07:38;;;;;;;4.53;1.50;;;;;;;32.50;24.34;100370.13;30592666;28;96853;-72
2023/08/23 14:22:38;;;;;;;3.47;1.38;;;;;;;32.18;23.74;100352.72;30591763;28;97008;-70
2023/08/23 14:37:38;;;;;;;2.63;1.10;;;;;;;31.14;24.61;100353.22;30590355;28;97269;-72
2023/08/23 14:52:39;;;;;;;5.40;1.33;;;;;;;30.04;25.55;100333.31;30588900;28;106888;-71
2023/08/23 15:07:39;;;;;;;3.40;1.50;;;;;;;29.61;26.38;100328.69;30601644;28;112499;-69
2023/08/23 15:22:39;;;;;;;3.80;1.50;;;;;;;29.12;27.01;100329.81;30608825;28;97184;-73
2023/08/23 15:37:40;;;;;;;4.65;1.25;;;;;;;28.65;27.70;100327.53;30607129;28;97396;-73
2023/08/23 15:52:40;;;;;;;2.35;1.17;;;;;;;28.16;28.53;100326.53;30604945;28;97375;-69
2023/08/23 16:07:40;;;;;;;4.40;1.50;;;;;;;27.70;29.57;100324.06;30604182;28;112305;-67
2023/08/23 16:22:42;;;;;;;3.92;1.38;;;;;;;27.20;31.27;100323.94;30601120;28;97841;-67
2023/08/23 16:37:42;;;;;;;4.03;1.73;;;;;;;26.74;32.57;100324.88;30601601;28;97033;-73
2023/08/23 16:52:43;;;;;;;2.85;1.25;;;;;;;26.33;33.21;100339.34;30599776;28;98577;-70
2023/08/23 17:07:43;;;;;;;3.53;1.58;;;;;;;25.96;33.73;100337.63;30599962;28;104444;-73
2023/08/23 17:22:43;;;;;;;3.42;1.30;;;;;;;25.68;34.31;100345.19;30597796;28;112455;-70
2023/08/23 17:37:44;;;;;;;3.35;1.38;;;;;;;25.17;34.66;100353.09;30597656;28;97612;-70
2023/08/23 17:52:44;;;;;;;6.72;1.45;;;;;;;24.57;35.75;100358.63;30594731;28;99261;-70
2023/08/23 18:07:44;;;;;;;7.07;1.73;;;;;;;24.10;36.91;100367.47;30595004;28;97377;-68
2023/08/23 18:22:45;;;;;;;9.95;2.33;;;;;;;23.65;38.49;100381.06;30593381;28;97583;-69
2023/08/23 18:37:45;;;;;;;5.45;2.42;;;;;;;23.11;40.64;100388.97;30604255;28;97459;-68
2023/08/23 18:52:48;;;;;;;14.35;2.45;;;;;;;22.70;42.86;100400.00;30631803;28;97229;-67
2023/08/23 19:07:49;;;;;;;12.30;2.70;;;;;;;22.30;44.64;100401.72;30631892;28;97514;-69
2023/08/23 19:22:50;;;;;;;9.00;3.43;;;;;;;21.69;46.34;100408.66;30629646;28;97424;-69
2023/08/23 19:37:50;;;;;;;9.35;2.92;;;;;;;21.40;47.85;100397.72;30629218;28;97496;-68
2023/08/23 19:52:52;;;;;;;7.70;2.67;;;;;;;20.90;49.10;100405.25;30615574;28;97177;-71
2023/08/23 20:07:53;;;;;;;9.67;2.80;;;;;;;20.47;50.32;100417.09;30603123;28;97315;-69
2023/08/23 20:22:53;;;;;;;8.53;3.50;;;;;;;20.25;51.13;100414.09;30598756;28;98384;-76
2023/08/23 20:37:54;;;;;;;4.60;2.83;;;;;;;20.10;51.77;100417.19;30587019;28;106513;-65
2023/08/23 20:52:54;;;;;;;5.10;3.07;;;;;;;19.92;52.60;100397.22;30602886;28;96686;-68
2023/08/23 21:07:54;;;;;;;9.35;3.72;;;;;;;19.66;53.37;100392.13;30594487;28;97051;-74
2023/08/23 21:22:54;;;;;;;5.97;2.80;;;;;;;19.38;54.03;100393.44;30597574;28;115220;-75
2023/08/23 21:37:55;;;;;;;5.65;2.90;;;;;;;19.00;55.47;100397.13;30599383;28;97652;-74
2023/08/23 21:52:55;;;;;;;7.82;3.50;;;;;;;18.90;56.38;100379.59;30598971;28;103023;-72
2023/08/23 22:07:56;;;;;;;8.38;3.80;;;;;;;18.79;56.56;100385.66;30597519;28;98048;-71
2023/08/23 22:22:56;;;;;;;8.65;3.40;;;;;;;18.61;57.49;100381.00;30595920;28;99687;-72
2023/08/23 22:37:56;;;;;;;7.75;3.40;;;;;;;18.42;58.06;100374.72;30596233;28;99829;-74
2023/08/23 22:52:57;;;;;;;7.20;3.67;;;;;;;18.36;58.95;100373.72;30594797;28;112010;-72
2023/08/23 23:07:57;;;;;;;5.68;3.53;;;;;;;18.33;59.39;100376.00;30593187;28;97160;-74
2023/08/23 23:22:57;;;;;;;12.57;4.03;;;;;;;18.08;60.31;100387.56;30595283;28;99357;-74
2023/08/23 23:37:58;;;;;;;8.73;4.60;;;;;;;17.97;61.11;100386.34;30611598;28;105794;-73
2023/08/23 23:53:02;;;;;;;14.25;6.85;;;;;;;17.81;61.85;100395.75;30609233;28;101040;-74
